Time;durP1;ratioP1;P1;durP2;ratioP2;P2;SDS_P1;SDS_P2;PMS_P1;PMS_P2;Temp;Humidity;BMP_temperature;BMP_pressure;BME280_temperature;BME280_humidity;BME280_pressure;Samples;Min_cycle;Max_cycle;Signal;HPM_P1;HPM_P2
2022/06/21 00:00:59;;;;;;;16.97;6.30;;;;;;;;;;4991264;28;20054;-61
2022/06/21 00:03:28;;;;;;;14.60;7.00;;;;;;;;;;4991720;28;20049;-62
2022/06/21 00:05:54;;;;;;;18.83;7.43;;;;;;;;;;4991497;28;20057;-61
2022/06/21 00:08:22;;;;;;;23.60;9.50;;;;;;;;;;4991467;28;20065;-62
2022/06/21 00:10:48;;;;;;;27.20;8.70;;;;;;;;;;4991060;28;20056;-62
2022/06/21 00:13:17;;;;;;;19.20;7.57;;;;;;;;;;4991598;28;20467;-61
2022/06/21 00:15:46;;;;;;;18.33;8.37;;;;;;;;;;4991010;28;20129;-61
2022/06/21 00:18:13;;;;;;;19.40;8.23;;;;;;;;;;4991377;28;20046;-62
2022/06/21 00:20:39;;;;;;;15.40;6.97;;;;;;;;;;4991549;28;20045;-62
2022/06/21 00:23:13;;;;;;;15.43;6.73;;;;;;;;;;4990620;28;20058;-62
2022/06/21 00:25:39;;;;;;;16.83;8.48;;;;;;;;;;4991477;28;20057;-62
2022/06/21 00:28:06;;;;;;;15.23;7.23;;;;;;;;;;4990868;28;20046;-62
2022/06/21 00:30:32;;;;;;;15.10;6.20;;;;;;;;;;4991221;28;20042;-61
2022/06/21 00:33:00;;;;;;;12.17;6.30;;;;;;;;;;4990927;28;20137;-61
2022/06/21 00:35:27;;;;;;;9.00;5.67;;;;;;;;;;4990766;28;20129;-62
2022/06/21 00:37:54;;;;;;;10.60;5.67;;;;;;;;;;4990771;28;20101;-61
2022/06/21 00:40:22;;;;;;;12.93;7.13;;;;;;;;;;4991473;28;20094;-61
2022/06/21 00:43:14;;;;;;;16.63;5.90;;;;;;;;;;4991350;28;20068;-62
2022/06/21 00:45:42;;;;;;;14.43;5.70;;;;;;;;;;4990843;28;20779;-61
2022/06/21 00:48:13;;;;;;;18.70;7.33;;;;;;;;;;4990954;28;20047;-61
2022/06/21 00:50:44;;;;;;;18.53;8.23;;;;;;;;;;4990955;28;20397;-62
2022/06/21 00:53:09;;;;;;;16.83;7.97;;;;;;;;;;4990628;28;20046;-61
2022/06/21 00:55:38;;;;;;;20.10;8.53;;;;;;;;;;4991010;28;20049;-61
2022/06/21 00:58:09;;;;;;;19.30;8.07;;;;;;;;;;4990900;28;20056;-61
2022/06/21 01:00:40;;;;;;;24.85;9.50;;;;;;;;;;4989824;28;20058;-61
2022/06/21 01:03:08;;;;;;;24.23;9.70;;;;;;;;;;4990454;28;20051;-61
2022/06/21 01:05:37;;;;;;;26.07;10.30;;;;;;;;;;4990511;28;20061;-61
2022/06/21 01:08:04;;;;;;;18.77;8.70;;;;;;;;;;4990330;28;20556;-61
2022/06/21 01:10:30;;;;;;;19.63;9.07;;;;;;;;;;4990412;28;20046;-61
2022/06/21 01:13:02;;;;;;;21.67;7.87;;;;;;;;;;4990892;28;20129;-61
2022/06/21 01:15:33;;;;;;;19.07;7.50;;;;;;;;;;4990258;28;20113;-61
2022/06/21 01:18:05;;;;;;;24.50;8.83;;;;;;;;;;4990491;28;20439;-61
2022/06/21 01:20:33;;;;;;;22.07;10.40;;;;;;;;;;4990519;28;20123;-61
2022/06/21 01:22:59;;;;;;;20.73;9.83;;;;;;;;;;4990172;28;20038;-61
2022/06/21 01:25:39;;;;;;;22.30;11.10;;;;;;;;;;4990075;28;20046;-61
2022/06/21 01:28:06;;;;;;;25.90;13.00;;;;;;;;;;4989569;28;20570;-61
2022/06/21 01:30:33;;;;;;;24.10;10.40;;;;;;;;;;4989923;28;20108;-61
2022/06/21 01:32:59;;;;;;;24.80;10.80;;;;;;;;;;4990169;28;20057;-61
2022/06/21 01:35:37;;;;;;;21.57;10.60;;;;;;;;;;4990305;28;20046;-61
2022/06/21 01:38:04;;;;;;;12.40;7.77;;;;;;;;;;4989567;28;20555;-62
2022/06/21 01:40:33;;;;;;;21.63;9.40;;;;;;;;;;4989940;28;20130;-61
2022/06/21 01:43:02;;;;;;;16.23;8.17;;;;;;;;;;4972545;28;20046;-62
2022/06/21 01:45:31;;;;;;;15.60;7.33;;;;;;;;;;4989188;28;20054;-62
2022/06/21 01:48:11;;;;;;;16.93;8.10;;;;;;;;;;4989833;28;20085;-61
2022/06/21 01:50:38;;;;;;;16.47;7.70;;;;;;;;;;4989578;28;20046;-61
2022/06/21 01:53:05;;;;;;;18.40;8.23;;;;;;;;;;4989481;28;20499;-62
2022/06/21 01:55:45;;;;;;;14.77;8.57;;;;;;;;;;4989627;28;20046;-61
2022/06/21 01:58:13;;;;;;;14.50;7.67;;;;;;;;;;4989453;28;20053;-61
2022/06/21 02:00:41;;;;;;;14.83;7.07;;;;;;;;;;4989761;28;20046;-62
2022/06/21 02:03:12;;;;;;;19.20;8.13;;;;;;;;;;4988999;28;20404;-61
2022/06/21 02:05:40;;;;;;;17.97;8.47;;;;;;;;;;4989640;28;20061;-61
2022/06/21 02:08:12;;;;;;;18.10;7.37;;;;;;;;;;4989141;28;20058;-61
2022/06/21 02:10:41;;;;;;;13.43;6.87;;;;;;;;;;4989786;28;20053;-61
2022/06/21 02:13:39;;;;;;;15.30;5.67;;;;;;;;;;4989339;28;20049;-61
2022/06/21 02:16:10;;;;;;;8.93;4.40;;;;;;;;;;4945184;28;20047;-61
2022/06/21 02:18:39;;;;;;;11.10;4.90;;;;;;;;;;4989160;28;20056;-62
2022/06/21 02:21:20;;;;;;;4.73;2.73;;;;;;;;;;4989136;28;20039;-61
2022/06/21 02:23:51;;;;;;;4.17;2.80;;;;;;;;;;4989185;28;20054;-62
2022/06/21 02:26:20;;;;;;;7.13;3.80;;;;;;;;;;4989040;28;20101;-61
2022/06/21 02:28:49;;;;;;;10.67;3.63;;;;;;;;;;4988847;28;20121;-61
2022/06/21 02:31:15;;;;;;;6.27;3.60;;;;;;;;;;4989099;28;20046;-62
2022/06/21 02:33:42;;;;;;;8.77;5.03;;;;;;;;;;4988220;28;20527;-62
2022/06/21 02:36:19;;;;;;;10.83;5.00;;;;;;;;;;4987913;28;20081;-61
2022/06/21 02:38:51;;;;;;;11.03;5.10;;;;;;;;;;4988116;28;20135;-62
2022/06/21 02:41:19;;;;;;;10.27;6.53;;;;;;;;;;4987442;28;20038;-62
2022/06/21 02:43:54;;;;;;;19.20;9.13;;;;;;;;;;4987966;28;20047;-62
2022/06/21 02:46:23;;;;;;;16.23;8.93;;;;;;;;;;4987965;28;20038;-62
2022/06/21 02:49:04;;;;;;;16.37;8.97;;;;;;;;;;4985236;28;20404;-61
2022/06/21 02:51:35;;;;;;;17.73;10.17;;;;;;;;;;4985855;28;20082;-61
2022/06/21 02:54:23;;;;;;;14.27;7.83;;;;;;;;;;4987730;28;20121;-61
2022/06/21 02:56:53;;;;;;;19.07;8.27;;;;;;;;;;4983969;28;20049;-63
2022/06/21 02:59:19;;;;;;;109.93;17.07;;;;;;;;;;4987783;28;20046;-61
2022/06/21 03:01:47;;;;;;;57.40;13.27;;;;;;;;;;4987870;28;20046;-62
2022/06/21 03:04:17;;;;;;;83.03;15.27;;;;;;;;;;4988114;28;20038;-62
2022/06/21 03:06:47;;;;;;;162.60;22.87;;;;;;;;;;4987723;28;20108;-62
2022/06/21 03:09:19;;;;;;;90.47;17.50;;;;;;;;;;4986220;28;20042;-61
2022/06/21 03:11:47;;;;;;;33.60;11.40;;;;;;;;;;4988038;28;20048;-62
2022/06/21 03:14:20;;;;;;;83.63;16.80;;;;;;;;;;4988074;28;20117;-62
2022/06/21 03:16:52;;;;;;;105.55;19.60;;;;;;;;;;4988068;28;20116;-62
2022/06/21 03:19:36;;;;;;;44.93;16.57;;;;;;;;;;4987521;28;20046;-62
2022/06/21 03:22:04;;;;;;;23.87;10.70;;;;;;;;;;4986430;28;20137;-61
2022/06/21 03:24:31;;;;;;;16.63;10.07;;;;;;;;;;4985132;28;20035;-61
2022/06/21 03:27:08;;;;;;;19.97;12.07;;;;;;;;;;4988697;28;20397;-61
2022/06/21 03:29:34;;;;;;;36.70;14.33;;;;;;;;;;4989293;28;20046;-62
2022/06/21 03:32:02;;;;;;;38.83;13.90;;;;;;;;;;4991289;28;20038;-62
2022/06/21 03:34:29;;;;;;;34.97;14.17;;;;;;;;;;4988050;28;20688;-62
2022/06/21 03:37:01;;;;;;;30.10;13.90;;;;;;;;;;4988088;28;20496;-62
2022/06/21 03:42:18;;;;;;;26.47;12.13;;;;;;;;;;4988715;28;20134;-61
2022/06/21 03:44:49;;;;;;;22.47;11.90;;;;;;;;;;4991155;28;20089;-61
2022/06/21 03:47:19;;;;;;;278.60;32.77;;;;;;;;;;4989299;28;20050;-62
2022/06/21 03:50:00;;;;;;;109.50;22.33;;;;;;;;;;4990933;28;20042;-61
2022/06/21 03:52:46;;;;;;;147.57;24.77;;;;;;;;;;4990695;28;20057;-61
2022/06/21 03:55:31;;;;;;;369.73;37.53;;;;;;;;;;4988513;28;20522;-61
2022/06/21 03:58:22;;;;;;;211.80;28.50;;;;;;;;;;4989567;28;20046;-62
2022/06/21 04:01:03;;;;;;;352.73;38.03;;;;;;;;;;4972809;28;20130;-61
2022/06/21 04:03:32;;;;;;;290.10;30.63;;;;;;;;;;4972533;28;20050;-61
2022/06/21 04:06:12;;;;;;;359.07;39.77;;;;;;;;;;4972678;28;20535;-61
2022/06/21 04:08:47;;;;;;;544.00;52.47;;;;;;;;;;4972439;28;20054;-61
2022/06/21 04:11:19;;;;;;;405.80;41.93;;;;;;;;;;4972461;28;20058;-61
2022/06/21 04:13:49;;;;;;;357.47;44.13;;;;;;;;;;4971239;28;20083;-61
2022/06/21 04:19:40;;;;;;;182.90;29.03;;;;;;;;;;4972125;28;20787;-61
2022/06/21 04:25:55;;;;;;;190.63;29.07;;;;;;;;;;4991387;28;20095;-61
2022/06/21 04:28:26;;;;;;;470.43;49.50;;;;;;;;;;4987865;28;20069;-61
2022/06/21 04:31:11;;;;;;;523.03;55.27;;;;;;;;;;4991535;28;20108;-61
2022/06/21 04:37:18;;;;;;;290.73;41.37;;;;;;;;;;4991651;28;20084;-62
2022/06/21 04:39:53;;;;;;;550.03;56.87;;;;;;;;;;4990531;28;20475;-62
2022/06/21 04:42:32;;;;;;;348.03;37.20;;;;;;;;;;4991035;28;20058;-62
2022/06/21 04:45:08;;;;;;;371.60;44.63;;;;;;;;;;4990030;28;20047;-62
2022/06/21 04:47:43;;;;;;;152.50;31.43;;;;;;;;;;4990291;28;20504;-62
2022/06/21 04:50:45;;;;;;;39.33;20.70;;;;;;;;;;4990103;28;20054;-62
2022/06/21 04:53:14;;;;;;;35.73;19.67;;;;;;;;;;4990491;28;20050;-62
2022/06/21 04:55:58;;;;;;;36.13;19.37;;;;;;;;;;4989638;28;20089;-61
2022/06/21 04:58:23;;;;;;;;;;;;;;;;;;4990282;28;20069;-61
2022/06/21 05:01:29;;;;;;;36.57;19.03;;;;;;;;;;4990206;28;19965;-62
2022/06/21 05:03:51;;;;;;;32.97;17.60;;;;;;;;;;4990028;28;20081;-61
2022/06/21 05:16:33;;;;;;;34.53;17.73;;;;;;;;;;4970372;28;20556;-61
2022/06/21 05:19:31;;;;;;;23.27;14.90;;;;;;;;;;4970254;28;20050;-61
2022/06/21 05:25:28;;;;;;;34.70;17.67;;;;;;;;;;4970114;28;20097;-61
2022/06/21 05:28:13;;;;;;;22.83;13.60;;;;;;;;;;4970596;28;20245;-61
2022/06/21 05:30:53;;;;;;;19.97;11.83;;;;;;;;;;4969833;28;20058;-61
2022/06/21 05:33:22;;;;;;;20.53;13.40;;;;;;;;;;4970130;28;20050;-61
2022/06/21 05:36:04;;;;;;;34.50;15.80;;;;;;;;;;4970199;28;20145;-61
2022/06/21 05:38:32;;;;;;;26.17;15.70;;;;;;;;;;4970434;28;20105;-61
2022/06/21 05:41:36;;;;;;;22.43;13.70;;;;;;;;;;4970107;28;20504;-61
2022/06/21 05:50:47;;;;;;;24.10;14.07;;;;;;;;;;4968584;28;20105;-61
2022/06/21 05:53:19;;;;;;;27.30;14.67;;;;;;;;;;4969760;28;20047;-62
2022/06/21 06:02:38;;;;;;;20.97;11.00;;;;;;;;;;4969175;28;20708;-62
2022/06/21 06:05:15;;;;;;;18.20;9.27;;;;;;;;;;4969782;28;20046;-61
2022/06/21 06:07:55;;;;;;;19.20;10.47;;;;;;;;;;4969453;28;20050;-62
2022/06/21 06:10:51;;;;;;;22.03;9.57;;;;;;;;;;4977627;28;20074;-61
2022/06/21 06:16:44;;;;;;;11.43;7.07;;;;;;;;;;4988507;28;20057;-61
2022/06/21 06:19:22;;;;;;;16.30;8.73;;;;;;;;;;4988838;28;20185;-62
2022/06/21 06:22:11;;;;;;;17.60;7.37;;;;;;;;;;4987968;28;20132;-61
2022/06/21 06:31:22;;;;;;;16.60;7.63;;;;;;;;;;4987724;28;20035;-62
2022/06/21 06:40:26;;;;;;;8.00;4.30;;;;;;;;;;4988122;28;20042;-61
2022/06/21 06:46:23;;;;;;;11.57;4.00;;;;;;;;;;4988055;28;20523;-62
2022/06/21 06:49:23;;;;;;;8.47;3.93;;;;;;;;;;4987724;28;20050;-61
2022/06/21 06:55:38;;;;;;;10.83;4.50;;;;;;;;;;4987904;28;20049;-61
2022/06/21 07:05:19;;;;;;;8.13;3.63;;;;;;;;;;4987747;28;20053;-61
2022/06/21 07:07:57;;;;;;;9.70;2.77;;;;;;;;;;4988022;28;20825;-62
2022/06/21 07:13:56;;;;;;;11.13;3.60;;;;;;;;;;4987585;28;20550;-62
2022/06/21 07:16:24;;;;;;;14.17;4.03;;;;;;;;;;4987793;28;20050;-62
2022/06/21 07:18:53;;;;;;;9.13;3.87;;;;;;;;;;4988369;28;20133;-61
2022/06/21 07:24:46;;;;;;;7.30;3.30;;;;;;;;;;4987921;28;20495;-62
2022/06/21 07:37:17;;;;;;;10.90;3.57;;;;;;;;;;4914159;28;20056;-62
2022/06/21 07:43:23;;;;;;;6.88;1.98;;;;;;;;;;4987500;28;20046;-61
2022/06/21 07:49:26;;;;;;;7.17;1.83;;;;;;;;;;4987503;28;20052;-61
2022/06/21 08:12:05;;;;;;;8.80;1.80;;;;;;;;;;4975094;28;20432;-61
2022/06/21 08:14:53;;;;;;;6.13;1.70;;;;;;;;;;4969692;28;20531;-61
2022/06/21 08:17:31;;;;;;;5.07;1.40;;;;;;;;;;4971573;28;20130;-61
2022/06/21 08:23:26;;;;;;;10.43;1.93;;;;;;;;;;4970440;28;20042;-61
2022/06/21 08:25:58;;;;;;;8.90;1.80;;;;;;;;;;4971766;28;20133;-61
2022/06/21 08:28:48;;;;;;;5.17;1.50;;;;;;;;;;4971111;28;20082;-61
2022/06/21 08:31:26;;;;;;;5.83;1.40;;;;;;;;;;4970914;28;20429;-61
2022/06/21 08:37:39;;;;;;;4.27;1.27;;;;;;;;;;4971073;28;20516;-61
2022/06/21 08:47:17;;;;;;;7.40;1.40;;;;;;;;;;4929858;29;20070;-61
2022/06/21 08:57:02;;;;;;;4.20;1.17;;;;;;;;;;4836230;29;20061;-61
2022/06/21 09:06:31;;;;;;;5.83;1.10;;;;;;;;;;4835430;29;20049;-61
2022/06/21 09:15:24;;;;;;;5.80;1.20;;;;;;;;;;4888366;29;20578;-61
2022/06/21 09:18:02;;;;;;;3.97;1.13;;;;;;;;;;4892289;29;20182;-61
2022/06/21 09:20:35;;;;;;;9.40;2.05;;;;;;;;;;4931842;28;20055;-61
2022/06/21 09:29:46;;;;;;;4.75;1.30;;;;;;;;;;4970169;28;20054;-61
2022/06/21 09:35:49;;;;;;;2.70;0.90;;;;;;;;;;4970266;28;20066;-62
2022/06/21 09:41:44;;;;;;;5.55;1.23;;;;;;;;;;4969972;28;20077;-61
2022/06/21 09:47:46;;;;;;;3.97;1.05;;;;;;;;;;4968850;28;20315;-61
2022/06/21 09:50:27;;;;;;;3.50;1.17;;;;;;;;;;4952224;28;20059;-61
2022/06/21 09:53:22;;;;;;;4.18;1.08;;;;;;;;;;4969487;28;20053;-61
2022/06/21 09:56:10;;;;;;;6.13;1.17;;;;;;;;;;4969799;28;20051;-61
2022/06/21 09:59:08;;;;;;;2.50;0.90;;;;;;;;;;4969693;28;20050;-61
2022/06/21 10:02:06;;;;;;;3.45;1.33;;;;;;;;;;4956919;28;20057;-64
2022/06/21 10:14:22;;;;;;;3.67;1.02;;;;;;;;;;4989421;28;20480;-61
2022/06/21 10:20:18;;;;;;;4.18;1.08;;;;;;;;;;4989223;28;20044;-59
2022/06/21 10:26:37;;;;;;;7.70;1.33;;;;;;;;;;4988140;28;20080;-59
2022/06/21 10:32:24;;;;;;;4.32;1.13;;;;;;;;;;4988568;28;20505;-60
2022/06/21 10:38:29;;;;;;;3.40;1.02;;;;;;;;;;4987584;28;20041;-60
2022/06/21 10:51:05;;;;;;;3.08;0.68;;;;;;;;;;4988550;28;20108;-61
2022/06/21 11:03:38;;;;;;;5.22;0.98;;;;;;;;;;4988116;28;20101;-61
2022/06/21 11:12:56;;;;;;;4.30;1.02;;;;;;;;;;4987463;28;20124;-61
2022/06/21 11:39:18;;;;;;;4.20;1.42;;;;;;;;;;4987397;28;20061;-61
2022/06/21 11:45:14;;;;;;;1.83;0.82;;;;;;;;;;4988130;28;20952;-61
2022/06/21 11:51:06;;;;;;;5.32;1.00;;;;;;;;;;4991457;28;20057;-61
2022/06/21 12:10:51;;;;;;;5.28;1.10;;;;;;;;;;4991158;28;20065;-61
2022/06/21 12:20:12;;;;;;;3.58;1.10;;;;;;;;;;4961905;28;20097;-61
2022/06/21 12:25:46;;;;;;;5.63;0.95;;;;;;;;;;4991311;28;20062;-61
2022/06/21 12:31:35;;;;;;;3.42;0.85;;;;;;;;;;4991360;28;20042;-62
2022/06/21 12:34:04;;;;;;;6.07;1.15;;;;;;;;;;4990441;28;20175;-61
2022/06/21 12:36:42;;;;;;;3.25;1.15;;;;;;;;;;4991016;28;20392;-61
2022/06/21 12:39:22;;;;;;;4.22;1.02;;;;;;;;;;4990537;28;20070;-61
2022/06/21 12:45:19;;;;;;;3.22;1.40;;;;;;;;;;4990241;28;20049;-61
2022/06/21 12:48:04;;;;;;;4.53;1.02;;;;;;;;;;4990605;28;20050;-61
2022/06/21 12:50:56;;;;;;;4.72;1.17;;;;;;;;;;4990748;28;20050;-61
2022/06/21 12:53:22;;;;;;;2.17;0.98;;;;;;;;;;4990628;28;20057;-61
2022/06/21 13:02:36;;;;;;;3.22;1.52;;;;;;;;;;4990401;28;20044;-61
2022/06/21 13:05:10;;;;;;;4.18;1.20;;;;;;;;;;4990312;28;20046;-62
2022/06/21 13:07:36;;;;;;;4.38;0.90;;;;;;;;;;4990603;28;20057;-61
2022/06/21 13:10:20;;;;;;;3.38;1.00;;;;;;;;;;4990426;28;20054;-61
2022/06/21 13:12:52;;;;;;;4.30;1.02;;;;;;;;;;4989947;28;20054;-61
2022/06/21 13:22:31;;;;;;;5.68;1.23;;;;;;;;;;4990100;28;20046;-61
2022/06/21 13:25:09;;;;;;;2.40;0.95;;;;;;;;;;4988761;28;20050;-61
2022/06/21 13:27:51;;;;;;;2.90;1.10;;;;;;;;;;4989970;28;20081;-61
2022/06/21 13:30:37;;;;;;;4.63;1.10;;;;;;;;;;4989626;28;20051;-61
2022/06/21 13:33:16;;;;;;;3.92;1.27;;;;;;;;;;4990166;28;20046;-61
2022/06/21 13:35:55;;;;;;;4.60;1.15;;;;;;;;;;4989650;28;20110;-62
2022/06/21 13:38:24;;;;;;;3.05;0.93;;;;;;;;;;4989759;28;20046;-61
2022/06/21 13:41:08;;;;;;;4.07;1.35;;;;;;;;;;4972317;28;20060;-61
2022/06/21 13:47:00;;;;;;;4.35;0.80;;;;;;;;;;4990810;28;20416;-61
2022/06/21 13:49:32;;;;;;;3.15;1.08;;;;;;;;;;4989036;28;20092;-61
2022/06/21 13:55:43;;;;;;;6.30;1.10;;;;;;;;;;4940844;28;20045;-61
2022/06/21 14:01:54;;;;;;;5.85;0.98;;;;;;;;;;4990068;28;20045;-62
2022/06/21 14:04:21;;;;;;;4.15;1.02;;;;;;;;;;4990003;28;20046;-62
2022/06/21 14:07:05;;;;;;;4.53;0.98;;;;;;;;;;4990172;28;20046;-62
2022/06/21 14:13:16;;;;;;;5.00;1.45;;;;;;;;;;4987608;28;20053;-62
2022/06/21 14:16:18;;;;;;;3.13;0.93;;;;;;;;;;4989919;28;20513;-62
2022/06/21 14:22:16;;;;;;;4.32;1.10;;;;;;;;;;4989518;28;20061;-62
2022/06/21 14:24:56;;;;;;;2.40;0.85;;;;;;;;;;4981600;28;20054;-62
2022/06/21 14:27:40;;;;;;;3.22;1.20;;;;;;;;;;4989869;28;20116;-62
2022/06/21 14:33:39;;;;;;;3.30;1.13;;;;;;;;;;4989446;28;20412;-62
2022/06/21 14:36:24;;;;;;;3.53;0.77;;;;;;;;;;4989548;28;20061;-62
2022/06/21 14:42:38;;;;;;;2.88;0.90;;;;;;;;;;4989308;28;20130;-62
2022/06/21 14:45:13;;;;;;;2.97;0.68;;;;;;;;;;4989152;28;20500;-63
2022/06/21 14:47:58;;;;;;;3.05;1.00;;;;;;;;;;4989771;28;20046;-62
2022/06/21 15:13:47;;;;;;;2.90;0.80;;;;;;;;;;4987013;28;19922;-61
2022/06/21 15:20:08;;;;;;;3.35;1.05;;;;;;;;;;4950306;28;20061;-61
2022/06/21 15:26:09;;;;;;;3.63;0.90;;;;;;;;;;4973147;28;20452;-61
2022/06/21 15:29:08;;;;;;;4.43;1.00;;;;;;;;;;4973489;28;20078;-61
2022/06/21 15:31:45;;;;;;;3.65;0.90;;;;;;;;;;4973226;28;20057;-61
2022/06/21 15:34:29;;;;;;;3.45;1.10;;;;;;;;;;4973309;28;20050;-61
2022/06/21 15:44:02;;;;;;;3.78;1.25;;;;;;;;;;4973257;28;20051;-61
2022/06/21 15:53:18;;;;;;;7.30;0.93;;;;;;;;;;4972300;28;20050;-61
2022/06/21 16:18:20;;;;;;;4.57;1.10;;;;;;;;;;4947106;29;20054;-61
2022/06/21 16:24:24;;;;;;;4.97;1.13;;;;;;;;;;4950529;29;20046;-61
2022/06/21 16:27:11;;;;;;;5.63;1.38;;;;;;;;;;4950829;29;20074;-61
2022/06/21 16:30:11;;;;;;;2.92;1.00;;;;;;;;;;4950737;29;20067;-61
2022/06/21 16:33:15;;;;;;;3.90;1.00;;;;;;;;;;4950644;29;20047;-62
2022/06/21 16:36:04;;;;;;;3.97;1.30;;;;;;;;;;4949342;28;20093;-61
2022/06/21 16:38:55;;;;;;;3.03;0.80;;;;;;;;;;4950523;28;20426;-61
2022/06/21 16:51:48;;;;;;;4.45;0.82;;;;;;;;;;4903672;29;20050;-61
2022/06/21 16:57:38;;;;;;;3.90;0.70;;;;;;;;;;4911663;29;20039;-61
2022/06/21 17:04:02;;;;;;;4.38;0.93;;;;;;;;;;4911454;29;20176;-62
2022/06/21 17:10:01;;;;;;;4.85;0.95;;;;;;;;;;4911594;29;20104;-61
2022/06/21 17:12:47;;;;;;;5.40;0.90;;;;;;;;;;4911420;29;20130;-61
2022/06/21 17:18:56;;;;;;;2.42;0.98;;;;;;;;;;4970851;28;20116;-61
2022/06/21 17:24:52;;;;;;;3.72;1.00;;;;;;;;;;4970888;28;20118;-61
2022/06/21 17:27:34;;;;;;;3.72;0.80;;;;;;;;;;4970495;28;20051;-61
2022/06/21 17:33:45;;;;;;;4.22;1.08;;;;;;;;;;4969903;28;20109;-61
2022/06/21 17:43:04;;;;;;;7.07;1.77;;;;;;;;;;4970091;28;20601;-61
2022/06/21 17:52:18;;;;;;;10.02;2.42;;;;;;;;;;4970311;28;20041;-61
2022/06/21 18:01:54;;;;;;;8.40;2.50;;;;;;;;;;4970772;28;20445;-62
2022/06/21 18:04:41;;;;;;;5.30;2.05;;;;;;;;;;4969958;28;20078;-61
2022/06/21 18:10:48;;;;;;;5.88;1.95;;;;;;;;;;4970131;28;20058;-61
2022/06/21 18:13:33;;;;;;;6.22;2.83;;;;;;;;;;4970170;28;20129;-61
2022/06/21 18:16:18;;;;;;;9.05;3.30;;;;;;;;;;4976074;28;20531;-61
2022/06/21 18:19:02;;;;;;;5.05;2.40;;;;;;;;;;4989735;28;20133;-62
2022/06/21 18:21:35;;;;;;;9.05;2.67;;;;;;;;;;4989676;28;20401;-61
2022/06/21 18:24:20;;;;;;;8.40;2.80;;;;;;;;;;4989551;28;20042;-61
2022/06/21 18:30:21;;;;;;;9.55;3.30;;;;;;;;;;4989258;28;20050;-61
2022/06/21 18:32:59;;;;;;;10.15;2.67;;;;;;;;;;4989577;28;20089;-61
2022/06/21 18:35:31;;;;;;;6.53;2.50;;;;;;;;;;4989396;28;20042;-62
2022/06/21 18:38:13;;;;;;;7.57;2.80;;;;;;;;;;4989132;28;20504;-62
2022/06/21 18:40:57;;;;;;;6.93;2.47;;;;;;;;;;4989730;28;20054;-62
2022/06/21 18:43:44;;;;;;;11.93;4.40;;;;;;;;;;4989292;28;20054;-61
2022/06/21 18:46:22;;;;;;;6.50;2.50;;;;;;;;;;4989267;28;20124;-62
2022/06/21 18:48:57;;;;;;;12.27;3.03;;;;;;;;;;4989141;28;20054;-62
2022/06/21 18:51:24;;;;;;;6.23;2.10;;;;;;;;;;4988696;28;20038;-62
2022/06/21 18:53:50;;;;;;;13.17;3.00;;;;;;;;;;4989073;28;20137;-62
2022/06/21 18:59:55;;;;;;;9.43;2.87;;;;;;;;;;4989563;28;20503;-62
2022/06/21 19:02:31;;;;;;;8.65;3.28;;;;;;;;;;4988978;28;20053;-61
2022/06/21 19:10:35;;;;;;;8.93;3.03;;;;;;;;;;4988821;28;20698;-61
2022/06/21 19:13:04;;;;;;;7.80;3.00;;;;;;;;;;4989130;28;20121;-61
2022/06/21 19:15:36;;;;;;;5.67;3.17;;;;;;;;;;4989042;28;20065;-61
2022/06/21 19:21:28;;;;;;;7.77;3.23;;;;;;;;;;4989012;28;20772;-62
2022/06/21 19:24:03;;;;;;;8.10;2.80;;;;;;;;;;4988605;28;20046;-63
2022/06/21 19:26:41;;;;;;;10.67;3.27;;;;;;;;;;4989445;28;20050;-62
2022/06/21 19:29:16;;;;;;;7.83;2.60;;;;;;;;;;4971343;28;20085;-62
2022/06/21 19:31:51;;;;;;;10.07;3.30;;;;;;;;;;4989088;28;20440;-62
2022/06/21 19:34:17;;;;;;;8.80;3.27;;;;;;;;;;4988433;28;20178;-62
2022/06/21 19:36:46;;;;;;;8.10;3.30;;;;;;;;;;4989084;28;20046;-62
2022/06/21 19:39:41;;;;;;;7.90;3.07;;;;;;;;;;4988908;28;20046;-62
2022/06/21 19:42:25;;;;;;;10.63;3.97;;;;;;;;;;4960009;28;20531;-61
2022/06/21 19:45:16;;;;;;;9.50;3.37;;;;;;;;;;4988880;28;20058;-62
2022/06/21 19:47:51;;;;;;;10.03;3.70;;;;;;;;;;4988434;28;20046;-62
2022/06/21 19:50:20;;;;;;;8.10;3.70;;;;;;;;;;4988517;28;20053;-62
2022/06/21 19:52:46;;;;;;;8.20;4.10;;;;;;;;;;4988964;28;20074;-62
2022/06/21 19:55:16;;;;;;;16.67;4.37;;;;;;;;;;4971208;28;20055;-62
2022/06/21 19:57:46;;;;;;;9.43;4.10;;;;;;;;;;4988472;28;20053;-62
2022/06/21 20:00:23;;;;;;;7.80;4.13;;;;;;;;;;4987594;28;20072;-62
2022/06/21 20:02:59;;;;;;;8.50;4.53;;;;;;;;;;4989132;28;20046;-62
2022/06/21 20:05:33;;;;;;;11.67;4.90;;;;;;;;;;4988527;28;20050;-62
2022/06/21 20:08:08;;;;;;;11.03;4.07;;;;;;;;;;4988586;28;20528;-62
2022/06/21 20:10:37;;;;;;;11.07;4.80;;;;;;;;;;4991788;28;20057;-62
2022/06/21 20:13:18;;;;;;;9.17;4.50;;;;;;;;;;4992088;28;20086;-62
2022/06/21 20:15:56;;;;;;;10.23;5.00;;;;;;;;;;4991946;28;20432;-62
2022/06/21 20:18:35;;;;;;;11.97;4.43;;;;;;;;;;4991996;28;20130;-62
2022/06/21 20:21:05;;;;;;;11.80;5.20;;;;;;;;;;4992050;28;20046;-62
2022/06/21 20:23:30;;;;;;;10.93;4.97;;;;;;;;;;4991955;28;20089;-62
2022/06/21 20:26:03;;;;;;;10.23;4.37;;;;;;;;;;4992376;28;20078;-62
2022/06/21 20:28:29;;;;;;;11.07;5.53;;;;;;;;;;4991983;28;20124;-62
2022/06/21 20:31:04;;;;;;;14.63;5.37;;;;;;;;;;4991857;28;20082;-62
2022/06/21 20:33:37;;;;;;;13.83;5.53;;;;;;;;;;4991549;28;20082;-62
2022/06/21 20:36:06;;;;;;;11.80;5.15;;;;;;;;;;4991611;28;20042;-62
2022/06/21 20:38:40;;;;;;;8.57;5.67;;;;;;;;;;4991698;28;20046;-62
2022/06/21 20:41:12;;;;;;;9.77;5.73;;;;;;;;;;4991514;28;20060;-62
2022/06/21 20:43:58;;;;;;;12.73;5.77;;;;;;;;;;4991630;28;20137;-62
2022/06/21 20:46:31;;;;;;;10.60;5.43;;;;;;;;;;4974587;28;20844;-62
2022/06/21 20:49:02;;;;;;;11.53;6.33;;;;;;;;;;4991553;28;20050;-63
2022/06/21 20:51:38;;;;;;;9.30;6.60;;;;;;;;;;4991609;28;20058;-62
2022/06/21 20:54:13;;;;;;;10.97;6.73;;;;;;;;;;4991319;28;20046;-62
2022/06/21 20:56:39;;;;;;;9.30;5.97;;;;;;;;;;4990482;28;20113;-62
2022/06/21 20:59:05;;;;;;;13.63;7.47;;;;;;;;;;4991526;28;20062;-62
2022/06/21 21:01:39;;;;;;;11.03;6.60;;;;;;;;;;4991845;28;20050;-62
2022/06/21 21:04:15;;;;;;;12.40;7.23;;;;;;;;;;4991644;28;20109;-62
2022/06/21 21:06:44;;;;;;;13.47;7.17;;;;;;;;;;4991641;28;20073;-62
2022/06/21 21:09:15;;;;;;;11.40;6.47;;;;;;;;;;4991401;28;20132;-62
2022/06/21 21:11:42;;;;;;;10.67;7.00;;;;;;;;;;4991025;28;20042;-62
2022/06/21 21:14:15;;;;;;;13.67;7.87;;;;;;;;;;4991265;28;20042;-62
2022/06/21 21:16:41;;;;;;;;;;;;;;;;;;4991640;28;20505;-63
2022/06/21 21:19:07;;;;;;;16.27;7.53;;;;;;;;;;4990973;28;19929;-62
2022/06/21 21:21:48;;;;;;;15.33;7.50;;;;;;;;;;4990196;28;20042;-62
2022/06/21 21:24:15;;;;;;;17.23;9.17;;;;;;;;;;4991214;28;20050;-61
2022/06/21 21:26:43;;;;;;;16.47;8.63;;;;;;;;;;4990987;28;20042;-62
2022/06/21 21:29:10;;;;;;;18.57;8.33;;;;;;;;;;4991015;28;20089;-62
2022/06/21 21:31:49;;;;;;;15.27;9.50;;;;;;;;;;4990876;28;20042;-62
2022/06/21 21:34:32;;;;;;;15.60;9.10;;;;;;;;;;4991046;28;20462;-61
2022/06/21 21:37:21;;;;;;;14.80;8.85;;;;;;;;;;4990813;28;20050;-62
2022/06/21 21:40:16;;;;;;;14.87;8.97;;;;;;;;;;4990985;28;20101;-61
2022/06/21 21:42:52;;;;;;;17.40;9.37;;;;;;;;;;4981798;28;20055;-61
2022/06/21 21:45:18;;;;;;;17.63;9.73;;;;;;;;;;4989763;28;20053;-61
2022/06/21 21:47:47;;;;;;;15.40;8.90;;;;;;;;;;4991037;28;20100;-61
2022/06/21 21:50:14;;;;;;;17.17;8.77;;;;;;;;;;4990737;28;20058;-61
2022/06/21 21:52:42;;;;;;;14.57;9.60;;;;;;;;;;4990767;28;20093;-61
2022/06/21 21:55:12;;;;;;;16.90;10.03;;;;;;;;;;4990476;28;20050;-62
2022/06/21 21:57:39;;;;;;;17.60;9.57;;;;;;;;;;4990336;28;20054;-62
2022/06/21 22:00:13;;;;;;;16.87;10.67;;;;;;;;;;4990556;28;20526;-61
2022/06/21 22:02:47;;;;;;;20.27;10.70;;;;;;;;;;4990431;28;20511;-61
2022/06/21 22:05:13;;;;;;;;;;;;;;;;;;4990757;28;20045;-62
2022/06/21 22:08:09;;;;;;;21.97;10.97;;;;;;;;;;4990384;28;19922;-62
2022/06/21 22:10:35;;;;;;;17.20;9.30;;;;;;;;;;4990394;28;20140;-62
2022/06/21 22:13:07;;;;;;;18.00;10.63;;;;;;;;;;4989466;28;20038;-61
2022/06/21 22:15:50;;;;;;;15.77;10.90;;;;;;;;;;4990231;28;20046;-61
2022/06/21 22:18:25;;;;;;;22.95;12.88;;;;;;;;;;4990032;28;20089;-61
2022/06/21 22:20:53;;;;;;;20.63;10.60;;;;;;;;;;4990229;28;20042;-61
2022/06/21 22:23:21;;;;;;;17.40;11.17;;;;;;;;;;4990236;28;20045;-61
2022/06/21 22:26:00;;;;;;;19.17;12.00;;;;;;;;;;4989990;28;20501;-61
2022/06/21 22:28:26;;;;;;;17.30;11.07;;;;;;;;;;4989601;28;20407;-62
2022/06/21 22:30:54;;;;;;;16.27;10.63;;;;;;;;;;4989744;28;20500;-62
2022/06/21 22:33:22;;;;;;;17.60;12.73;;;;;;;;;;4972718;28;20043;-62
2022/06/21 22:35:50;;;;;;;19.93;11.90;;;;;;;;;;4960620;28;20452;-62
2022/06/21 22:38:22;;;;;;;22.57;12.40;;;;;;;;;;4951359;28;20047;-61
2022/06/21 22:40:49;;;;;;;24.77;14.07;;;;;;;;;;4950866;29;20051;-62
2022/06/21 22:43:20;;;;;;;20.43;14.30;;;;;;;;;;4950861;29;20131;-62
2022/06/21 22:45:47;;;;;;;21.30;13.67;;;;;;;;;;4950617;29;20043;-62
2022/06/21 22:48:22;;;;;;;21.93;13.83;;;;;;;;;;4950926;28;20059;-62
2022/06/21 22:50:49;;;;;;;22.23;13.70;;;;;;;;;;4950667;29;20174;-61
2022/06/21 22:53:35;;;;;;;26.97;14.00;;;;;;;;;;4950676;29;20047;-61
2022/06/21 22:56:03;;;;;;;26.90;14.60;;;;;;;;;;4940197;28;20608;-62
2022/06/21 22:58:35;;;;;;;24.07;13.73;;;;;;;;;;4933996;29;20050;-61